sensor_id;sensor_type;location;lat;lon;timestamp;pressure;altitude;pressure_sealevel;temperature;humidity
48872;BME280;36154;51.674;7.824;2023-01-29T00:00:35;102169.75;;;19.73;43.79
48872;BME280;36154;51.674;7.824;2023-01-29T00:03:01;102174.09;;;19.72;44.04
48872;BME280;36154;51.674;7.824;2023-01-29T00:05:26;102173.22;;;19.72;43.84
48872;BME280;36154;51.674;7.824;2023-01-29T00:07:51;102168.91;;;19.71;43.42
48872;BME280;36154;51.674;7.824;2023-01-29T00:10:17;102157.72;;;19.70;43.84
48872;BME280;36154;51.674;7.824;2023-01-29T00:12:42;102159.44;;;19.70;43.72
48872;BME280;36154;51.674;7.824;2023-01-29T00:15:07;102162.03;;;19.70;43.57
48872;BME280;36154;51.674;7.824;2023-01-29T00:17:33;102162.03;;;19.68;43.55
48872;BME280;36154;51.674;7.824;2023-01-29T00:19:58;102155.13;;;19.67;43.73
48872;BME280;36154;51.674;7.824;2023-01-29T00:22:24;102149.94;;;19.67;43.83
48872;BME280;36154;51.674;7.824;2023-01-29T00:24:49;102146.50;;;19.67;43.71
48872;BME280;36154;51.674;7.824;2023-01-29T00:27:14;102150.84;;;19.66;43.51
48872;BME280;36154;51.674;7.824;2023-01-29T00:29:40;102149.94;;;19.66;43.66
48872;BME280;36154;51.674;7.824;2023-01-29T00:32:05;102145.66;;;19.65;43.54
48872;BME280;36154;51.674;7.824;2023-01-29T00:34:31;102144.78;;;19.64;43.59
48872;BME280;36154;51.674;7.824;2023-01-29T00:36:56;102133.59;;;19.64;43.48
48872;BME280;36154;51.674;7.824;2023-01-29T00:39:29;102130.13;;;19.62;43.61
48872;BME280;36154;51.674;7.824;2023-01-29T00:42:02;102144.78;;;19.63;43.48
48872;BME280;36154;51.674;7.824;2023-01-29T00:44:47;102133.53;;;19.61;43.51
48872;BME280;36154;51.674;7.824;2023-01-29T00:47:24;102136.13;;;19.61;43.37
48872;BME280;36154;51.674;7.824;2023-01-29T00:49:58;102139.56;;;19.61;43.58
48872;BME280;36154;51.674;7.824;2023-01-29T00:52:24;102139.59;;;19.58;43.40
48872;BME280;36154;51.674;7.824;2023-01-29T00:54:51;102144.75;;;19.61;43.55
48872;BME280;36154;51.674;7.824;2023-01-29T00:57:16;102147.34;;;19.60;42.96
48872;BME280;36154;51.674;7.824;2023-01-29T00:59:42;102143.03;;;19.58;43.37
48872;BME280;36154;51.674;7.824;2023-01-29T01:02:07;102147.34;;;19.60;43.40
48872;BME280;36154;51.674;7.824;2023-01-29T01:04:51;102148.22;;;19.58;43.37
48872;BME280;36154;51.674;7.824;2023-01-29T01:07:19;102147.34;;;19.58;43.47
48872;BME280;36154;51.674;7.824;2023-01-29T01:09:44;102155.09;;;19.56;43.15
48872;BME280;36154;51.674;7.824;2023-01-29T01:12:28;102149.94;;;19.56;43.29
48872;BME280;36154;51.674;7.824;2023-01-29T01:14:54;102154.22;;;19.56;43.42
48872;BME280;36154;51.674;7.824;2023-01-29T01:17:19;102157.69;;;19.56;43.31
48872;BME280;36154;51.674;7.824;2023-01-29T01:19:44;102150.78;;;19.55;43.33
48872;BME280;36154;51.674;7.824;2023-01-29T01:22:10;102139.59;;;19.55;43.73
48872;BME280;36154;51.674;7.824;2023-01-29T01:24:36;102141.28;;;19.54;43.36
48872;BME280;36154;51.674;7.824;2023-01-29T01:27:01;102140.44;;;19.54;43.41
48872;BME280;36154;51.674;7.824;2023-01-29T01:29:27;102130.97;;;19.54;43.41
48872;BME280;36154;51.674;7.824;2023-01-29T01:31:52;102112.84;;;19.54;43.32
48872;BME280;36154;51.674;7.824;2023-01-29T01:34:18;102115.44;;;19.54;43.38
48872;BME280;36154;51.674;7.824;2023-01-29T01:36:44;102103.41;;;19.53;43.39
48872;BME280;36154;51.674;7.824;2023-01-29T01:39:09;102093.91;;;19.52;43.21
48872;BME280;36154;51.674;7.824;2023-01-29T01:41:34;102099.09;;;19.52;43.47
48872;BME280;36154;51.674;7.824;2023-01-29T01:44:02;102088.75;;;19.52;43.39
48872;BME280;36154;51.674;7.824;2023-01-29T01:46:32;102090.47;;;19.52;43.53
48872;BME280;36154;51.674;7.824;2023-01-29T01:49:07;102091.31;;;19.51;43.60
48872;BME280;36154;51.674;7.824;2023-01-29T01:51:37;102092.22;;;19.51;43.20
48872;BME280;36154;51.674;7.824;2023-01-29T01:54:07;102096.50;;;19.51;43.44
48872;BME280;36154;51.674;7.824;2023-01-29T01:56:39;102103.41;;;19.50;43.28
48872;BME280;36154;51.674;7.824;2023-01-29T01:59:14;102104.25;;;19.49;43.32
48872;BME280;36154;51.674;7.824;2023-01-29T02:01:42;102106.84;;;19.49;43.22
48872;BME280;36154;51.674;7.824;2023-01-29T02:04:12;102102.53;;;19.48;43.30
48872;BME280;36154;51.674;7.824;2023-01-29T02:07:00;102107.72;;;19.48;43.14
48872;BME280;36154;51.674;7.824;2023-01-29T02:10:09;102113.72;;;19.47;43.14
48872;BME280;36154;51.674;7.824;2023-01-29T02:12:37;102103.41;;;19.46;43.22
48872;BME280;36154;51.674;7.824;2023-01-29T02:15:03;102117.19;;;19.46;43.15
48872;BME280;36154;51.674;7.824;2023-01-29T02:17:29;102126.66;;;19.47;43.30
48872;BME280;36154;51.674;7.824;2023-01-29T02:22:49;102119.78;;;19.46;43.09
48872;BME280;36154;51.674;7.824;2023-01-29T02:28:24;102116.31;;;19.44;43.26
48872;BME280;36154;51.674;7.824;2023-01-29T02:31:34;102106.84;;;19.40;43.17
48872;BME280;36154;51.674;7.824;2023-01-29T02:36:50;102114.59;;;19.40;43.49
48872;BME280;36154;51.674;7.824;2023-01-29T02:42:01;102125.81;;;19.42;43.12
48872;BME280;36154;51.674;7.824;2023-01-29T02:47:21;102126.66;;;19.41;42.90
48872;BME280;36154;51.674;7.824;2023-01-29T02:49:58;102122.38;;;19.40;43.09
48872;BME280;36154;51.674;7.824;2023-01-29T02:55:43;102129.28;;;19.39;43.12
48872;BME280;36154;51.674;7.824;2023-01-29T02:58:20;102124.94;;;19.37;43.27
48872;BME280;36154;51.674;7.824;2023-01-29T03:00:50;102126.69;;;19.38;43.22
48872;BME280;36154;51.674;7.824;2023-01-29T03:03:29;102130.13;;;19.38;43.29
48872;BME280;36154;51.674;7.824;2023-01-29T03:06:04;102127.53;;;19.38;43.25
48872;BME280;36154;51.674;7.824;2023-01-29T03:08:38;102124.94;;;19.38;43.25
48872;BME280;36154;51.674;7.824;2023-01-29T03:11:13;102120.63;;;19.37;43.12
48872;BME280;36154;51.674;7.824;2023-01-29T03:13:56;102126.69;;;19.38;43.07
48872;BME280;36154;51.674;7.824;2023-01-29T03:16:33;102130.13;;;19.37;43.13
48872;BME280;36154;51.674;7.824;2023-01-29T03:19:29;102105.13;;;19.37;43.29
48872;BME280;36154;51.674;7.824;2023-01-29T03:21:59;102107.69;;;19.36;43.27
48872;BME280;36154;51.674;7.824;2023-01-29T03:27:21;102116.34;;;19.35;43.22
48872;BME280;36154;51.674;7.824;2023-01-29T03:30:07;102113.75;;;19.35;43.38
48872;BME280;36154;51.674;7.824;2023-01-29T03:32:54;102124.94;;;19.34;43.29
48872;BME280;36154;51.674;7.824;2023-01-29T03:35:24;102123.22;;;19.34;43.06
48872;BME280;36154;51.674;7.824;2023-01-29T03:38:03;102121.50;;;19.35;43.08
48872;BME280;36154;51.674;7.824;2023-01-29T03:40:48;102124.09;;;19.35;43.01
48872;BME280;36154;51.674;7.824;2023-01-29T03:43:28;102111.16;;;19.35;43.01
48872;BME280;36154;51.674;7.824;2023-01-29T03:46:10;102104.25;;;19.34;43.03
48872;BME280;36154;51.674;7.824;2023-01-29T03:51:24;102105.16;;;19.33;43.01
48872;BME280;36154;51.674;7.824;2023-01-29T03:54:04;102105.16;;;19.33;43.15
48872;BME280;36154;51.674;7.824;2023-01-29T03:59:38;102106.00;;;19.32;42.88
48872;BME280;36154;51.674;7.824;2023-01-29T04:02:09;102105.13;;;19.31;42.89
48872;BME280;36154;51.674;7.824;2023-01-29T04:04:40;102096.50;;;19.31;43.05
48872;BME280;36154;51.674;7.824;2023-01-29T04:07:14;102092.22;;;19.31;43.08
48872;BME280;36154;51.674;7.824;2023-01-29T04:09:45;102099.09;;;19.34;42.93
48872;BME280;36154;51.674;7.824;2023-01-29T04:12:15;102095.66;;;19.35;43.00
48872;BME280;36154;51.674;7.824;2023-01-29T04:14:43;102094.78;;;19.39;42.89
48872;BME280;36154;51.674;7.824;2023-01-29T04:17:14;102087.03;;;19.42;42.84
48872;BME280;36154;51.674;7.824;2023-01-29T04:19:42;102087.88;;;19.46;42.82
48872;BME280;36154;51.674;7.824;2023-01-29T04:22:16;102092.22;;;19.50;42.87
48872;BME280;36154;51.674;7.824;2023-01-29T04:24:43;102081.84;;;19.54;42.94
48872;BME280;36154;51.674;7.824;2023-01-29T04:27:25;102076.66;;;19.57;42.93
48872;BME280;36154;51.674;7.824;2023-01-29T04:30:10;102069.75;;;19.61;42.77
48872;BME280;36154;51.674;7.824;2023-01-29T04:32:56;102064.63;;;19.63;42.73
48872;BME280;36154;51.674;7.824;2023-01-29T04:35:30;102066.34;;;19.67;42.73
48872;BME280;36154;51.674;7.824;2023-01-29T04:43:19;102044.78;;;19.72;42.58
48872;BME280;36154;51.674;7.824;2023-01-29T04:46:08;102046.50;;;19.75;42.51
48872;BME280;36154;51.674;7.824;2023-01-29T04:48:48;102037.00;;;19.77;42.59
48872;BME280;36154;51.674;7.824;2023-01-29T04:54:09;102030.94;;;19.83;42.57
48872;BME280;36154;51.674;7.824;2023-01-29T04:59:42;102024.03;;;19.88;42.50
48872;BME280;36154;51.674;7.824;2023-01-29T05:02:11;102019.75;;;19.88;42.39
48872;BME280;36154;51.674;7.824;2023-01-29T05:04:39;102004.22;;;19.91;42.63
48872;BME280;36154;51.674;7.824;2023-01-29T05:07:07;101997.31;;;19.93;42.48
48872;BME280;36154;51.674;7.824;2023-01-29T05:09:35;101998.16;;;19.94;42.47
48872;BME280;36154;51.674;7.824;2023-01-29T05:12:02;101992.97;;;19.97;42.57
48872;BME280;36154;51.674;7.824;2023-01-29T05:14:31;101992.06;;;20.00;42.60
48872;BME280;36154;51.674;7.824;2023-01-29T05:17:00;101992.97;;;20.00;42.42
48872;BME280;36154;51.674;7.824;2023-01-29T05:19:27;101997.25;;;20.03;42.49
48872;BME280;36154;51.674;7.824;2023-01-29T05:21:53;101986.91;;;20.03;42.34
48872;BME280;36154;51.674;7.824;2023-01-29T05:24:21;101990.34;;;20.05;42.40
48872;BME280;36154;51.674;7.824;2023-01-29T05:26:48;101992.06;;;20.06;42.42
48872;BME280;36154;51.674;7.824;2023-01-29T05:29:33;101989.47;;;20.07;42.55
48872;BME280;36154;51.674;7.824;2023-01-29T05:31:58;101976.53;;;20.06;42.51
48872;BME280;36154;51.674;7.824;2023-01-29T05:34:24;101981.69;;;20.10;42.34
48872;BME280;36154;51.674;7.824;2023-01-29T05:36:49;101990.31;;;20.11;42.34
48872;BME280;36154;51.674;7.824;2023-01-29T05:39:15;101983.38;;;20.11;42.42
48872;BME280;36154;51.674;7.824;2023-01-29T05:41:40;101986.84;;;20.12;42.42
48872;BME280;36154;51.674;7.824;2023-01-29T05:44:06;102004.09;;;20.13;42.25
48872;BME280;36154;51.674;7.824;2023-01-29T05:46:31;102001.50;;;20.15;42.35
48872;BME280;36154;51.674;7.824;2023-01-29T05:48:56;102010.13;;;20.17;42.33
48872;BME280;36154;51.674;7.824;2023-01-29T05:51:21;102013.56;;;20.17;42.06
48872;BME280;36154;51.674;7.824;2023-01-29T05:53:47;102013.56;;;20.17;42.31
48872;BME280;36154;51.674;7.824;2023-01-29T05:56:12;102017.91;;;20.17;42.25
48872;BME280;36154;51.674;7.824;2023-01-29T05:58:37;102012.69;;;20.18;42.26
48872;BME280;36154;51.674;7.824;2023-01-29T06:01:29;102023.91;;;20.17;42.10
48872;BME280;36154;51.674;7.824;2023-01-29T06:03:54;102030.84;;;20.17;42.40
48872;BME280;36154;51.674;7.824;2023-01-29T06:06:20;102029.09;;;20.16;42.15
48872;BME280;36154;51.674;7.824;2023-01-29T06:08:45;102031.69;;;20.16;42.32
48872;BME280;36154;51.674;7.824;2023-01-29T06:11:12;102023.06;;;20.15;42.07
48872;BME280;36154;51.674;7.824;2023-01-29T06:13:37;102031.69;;;20.14;42.24
48872;BME280;36154;51.674;7.824;2023-01-29T06:16:04;102037.72;;;20.13;42.12
48872;BME280;36154;51.674;7.824;2023-01-29T06:18:30;102040.31;;;20.13;42.31
48872;BME280;36154;51.674;7.824;2023-01-29T06:20:59;102035.19;;;20.10;42.28
48872;BME280;36154;51.674;7.824;2023-01-29T06:23:25;102039.47;;;20.09;42.38
48872;BME280;36154;51.674;7.824;2023-01-29T06:25:50;102032.59;;;20.08;42.30
48872;BME280;36154;51.674;7.824;2023-01-29T06:28:18;102027.44;;;20.05;42.46
48872;BME280;36154;51.674;7.824;2023-01-29T06:30:43;102026.56;;;20.05;42.36
48872;BME280;36154;51.674;7.824;2023-01-29T06:33:08;102024.84;;;20.04;42.49
48872;BME280;36154;51.674;7.824;2023-01-29T06:35:36;102033.47;;;20.03;42.37
48872;BME280;36154;51.674;7.824;2023-01-29T06:38:01;102042.09;;;20.02;42.43
48872;BME280;36154;51.674;7.824;2023-01-29T06:40:26;102031.78;;;19.97;42.58
48872;BME280;36154;51.674;7.824;2023-01-29T06:42:51;102041.22;;;20.00;42.43
48872;BME280;36154;51.674;7.824;2023-01-29T06:45:17;102034.34;;;19.99;42.38
48872;BME280;36154;51.674;7.824;2023-01-29T06:47:42;102042.97;;;19.98;42.37
48872;BME280;36154;51.674;7.824;2023-01-29T06:50:08;102043.84;;;19.97;42.44
48872;BME280;36154;51.674;7.824;2023-01-29T06:52:35;102056.78;;;19.95;42.47
48872;BME280;36154;51.674;7.824;2023-01-29T06:55:00;102065.41;;;19.94;42.53
48872;BME280;36154;51.674;7.824;2023-01-29T06:57:28;102055.94;;;19.91;42.50
48872;BME280;36154;51.674;7.824;2023-01-29T06:59:54;102052.47;;;19.89;42.47
48872;BME280;36154;51.674;7.824;2023-01-29T07:02:19;102055.94;;;19.88;42.55
48872;BME280;36154;51.674;7.824;2023-01-29T07:04:44;102055.94;;;19.88;42.43
48872;BME280;36154;51.674;7.824;2023-01-29T07:07:10;102054.22;;;19.87;42.34
48872;BME280;36154;51.674;7.824;2023-01-29T07:09:39;102044.72;;;19.88;42.38
48872;BME280;36154;51.674;7.824;2023-01-29T07:12:04;102030.09;;;19.88;42.64
48872;BME280;36154;51.674;7.824;2023-01-29T07:14:30;102048.16;;;19.93;42.52
48872;BME280;36154;51.674;7.824;2023-01-29T07:16:55;102051.63;;;19.95;42.46
48872;BME280;36154;51.674;7.824;2023-01-29T07:19:20;102058.50;;;19.98;42.46
48872;BME280;36154;51.674;7.824;2023-01-29T07:21:45;102041.22;;;20.00;42.44
48872;BME280;36154;51.674;7.824;2023-01-29T07:24:11;102035.19;;;20.01;42.45
48872;BME280;36154;51.674;7.824;2023-01-29T07:26:36;102036.03;;;20.04;42.38
48872;BME280;36154;51.674;7.824;2023-01-29T07:29:03;102018.81;;;20.05;42.40
48872;BME280;36154;51.674;7.824;2023-01-29T07:31:29;102024.84;;;20.07;42.40
48872;BME280;36154;51.674;7.824;2023-01-29T07:33:54;102026.53;;;20.08;42.43
48872;BME280;36154;51.674;7.824;2023-01-29T07:36:20;102033.44;;;20.10;42.42
48872;BME280;36154;51.674;7.824;2023-01-29T07:38:48;102028.25;;;20.12;42.53
48872;BME280;36154;51.674;7.824;2023-01-29T07:41:14;102042.03;;;20.14;42.20
48872;BME280;36154;51.674;7.824;2023-01-29T07:43:39;102033.44;;;20.15;42.36
48872;BME280;36154;51.674;7.824;2023-01-29T07:46:05;102030.84;;;20.17;42.39
48872;BME280;36154;51.674;7.824;2023-01-29T07:48:32;102018.75;;;20.17;42.26
48872;BME280;36154;51.674;7.824;2023-01-29T07:50:57;102021.34;;;20.17;42.19
48872;BME280;36154;51.674;7.824;2023-01-29T07:53:23;102022.19;;;20.19;42.18
48872;BME280;36154;51.674;7.824;2023-01-29T07:55:48;102027.34;;;20.21;42.32
48872;BME280;36154;51.674;7.824;2023-01-29T07:58:14;102025.59;;;20.21;42.32
48872;BME280;36154;51.674;7.824;2023-01-29T08:00:39;102019.56;;;20.22;42.30
48872;BME280;36154;51.674;7.824;2023-01-29T08:03:08;102017.00;;;20.22;42.27
48872;BME280;36154;51.674;7.824;2023-01-29T08:05:34;102015.25;;;20.24;42.26
48872;BME280;36154;51.674;7.824;2023-01-29T08:08:00;102010.94;;;20.25;42.21
48872;BME280;36154;51.674;7.824;2023-01-29T08:10:25;102007.47;;;20.24;42.14
48872;BME280;36154;51.674;7.824;2023-01-29T08:12:58;102003.16;;;20.25;42.05
48872;BME280;36154;51.674;7.824;2023-01-29T08:15:24;102009.22;;;20.22;42.00
48872;BME280;36154;51.674;7.824;2023-01-29T08:17:50;102023.03;;;20.21;42.07
48872;BME280;36154;51.674;7.824;2023-01-29T08:20:16;102026.50;;;20.20;42.09
48872;BME280;36154;51.674;7.824;2023-01-29T08:22:41;102017.00;;;20.19;42.06
48872;BME280;36154;51.674;7.824;2023-01-29T08:25:07;102017.84;;;20.18;42.23
48872;BME280;36154;51.674;7.824;2023-01-29T08:27:32;102023.03;;;20.18;42.21
48872;BME280;36154;51.674;7.824;2023-01-29T08:29:58;102012.72;;;20.17;42.17
48872;BME280;36154;51.674;7.824;2023-01-29T08:32:23;102014.44;;;20.16;42.24
48872;BME280;36154;51.674;7.824;2023-01-29T08:34:48;102004.06;;;20.16;42.11
48872;BME280;36154;51.674;7.824;2023-01-29T08:37:13;101990.28;;;20.14;42.33
48872;BME280;36154;51.674;7.824;2023-01-29T08:39:39;101985.97;;;20.13;42.42
48872;BME280;36154;51.674;7.824;2023-01-29T08:42:04;101986.84;;;20.12;42.00
48872;BME280;36154;51.674;7.824;2023-01-29T08:44:29;101980.81;;;20.11;42.28
48872;BME280;36154;51.674;7.824;2023-01-29T08:46:54;101983.44;;;20.10;42.28
48872;BME280;36154;51.674;7.824;2023-01-29T08:49:20;101979.97;;;20.08;42.25
48872;BME280;36154;51.674;7.824;2023-01-29T08:51:45;101985.13;;;20.08;42.37
48872;BME280;36154;51.674;7.824;2023-01-29T08:54:10;101979.13;;;20.07;42.23
48872;BME280;36154;51.674;7.824;2023-01-29T08:56:36;101966.19;;;20.06;42.19
48872;BME280;36154;51.674;7.824;2023-01-29T08:59:02;101959.31;;;20.05;42.17
48872;BME280;36154;51.674;7.824;2023-01-29T09:01:27;101956.72;;;20.05;42.27
48872;BME280;36154;51.674;7.824;2023-01-29T09:03:52;101962.75;;;20.04;42.19
48872;BME280;36154;51.674;7.824;2023-01-29T09:06:18;101967.06;;;20.03;42.32
48872;BME280;36154;51.674;7.824;2023-01-29T09:08:43;101969.66;;;20.02;42.24
48872;BME280;36154;51.674;7.824;2023-01-29T09:11:09;101960.16;;;20.02;42.13
48872;BME280;36154;51.674;7.824;2023-01-29T09:13:35;101955.84;;;20.03;42.27
48872;BME280;36154;51.674;7.824;2023-01-29T09:16:01;101957.56;;;20.04;42.57
48872;BME280;36154;51.674;7.824;2023-01-29T09:18:27;101964.47;;;20.05;42.71
48872;BME280;36154;51.674;7.824;2023-01-29T09:20:53;101957.56;;;20.07;43.15
48872;BME280;36154;51.674;7.824;2023-01-29T09:23:19;101961.00;;;20.09;42.89
48872;BME280;36154;51.674;7.824;2023-01-29T09:25:44;101961.00;;;20.10;43.00
48872;BME280;36154;51.674;7.824;2023-01-29T09:28:09;101959.25;;;20.11;43.12
48872;BME280;36154;51.674;7.824;2023-01-29T09:30:35;101956.66;;;20.14;43.03
48872;BME280;36154;51.674;7.824;2023-01-29T09:33:03;101949.75;;;20.15;42.92
48872;BME280;36154;51.674;7.824;2023-01-29T09:35:28;101946.28;;;20.17;43.23
48872;BME280;36154;51.674;7.824;2023-01-29T09:37:54;101942.81;;;20.18;43.15
48872;BME280;36154;51.674;7.824;2023-01-29T09:40:24;101936.78;;;20.19;42.92
48872;BME280;36154;51.674;7.824;2023-01-29T09:42:59;101944.53;;;20.21;42.87
48872;BME280;36154;51.674;7.824;2023-01-29T09:45:27;101935.91;;;20.22;42.60
48872;BME280;36154;51.674;7.824;2023-01-29T09:47:58;101921.25;;;20.19;42.94
48872;BME280;36154;51.674;7.824;2023-01-29T09:50:37;101929.00;;;20.21;42.62
48872;BME280;36154;51.674;7.824;2023-01-29T09:53:14;101930.75;;;20.22;42.83
48872;BME280;36154;51.674;7.824;2023-01-29T09:56:03;101936.75;;;20.22;42.65
48872;BME280;36154;51.674;7.824;2023-01-29T09:58:39;101935.91;;;20.22;42.65
48872;BME280;36154;51.674;7.824;2023-01-29T10:01:16;101950.56;;;20.21;42.59
48872;BME280;36154;51.674;7.824;2023-01-29T10:06:50;101956.63;;;20.17;42.58
48872;BME280;36154;51.674;7.824;2023-01-29T10:09:55;101956.66;;;20.14;42.65
48872;BME280;36154;51.674;7.824;2023-01-29T10:15:27;101958.41;;;20.12;42.60
48872;BME280;36154;51.674;7.824;2023-01-29T10:23:34;101935.97;;;20.06;42.69
48872;BME280;36154;51.674;7.824;2023-01-29T10:26:02;101935.16;;;20.03;42.74
48872;BME280;36154;51.674;7.824;2023-01-29T10:28:40;101929.97;;;20.03;42.76
48872;BME280;36154;51.674;7.824;2023-01-29T10:31:29;101935.16;;;20.03;42.99
48872;BME280;36154;51.674;7.824;2023-01-29T10:34:13;101927.41;;;20.01;42.81
48872;BME280;36154;51.674;7.824;2023-01-29T10:36:43;101923.09;;;20.02;42.63
48872;BME280;36154;51.674;7.824;2023-01-29T10:39:19;101919.63;;;20.00;42.81
48872;BME280;36154;51.674;7.824;2023-01-29T10:44:34;101905.88;;;19.98;42.79
48872;BME280;36154;51.674;7.824;2023-01-29T10:50:11;101899.84;;;19.96;42.88
48872;BME280;36154;51.674;7.824;2023-01-29T10:58:40;101886.88;;;20.00;42.95
48872;BME280;36154;51.674;7.824;2023-01-29T11:01:11;101886.00;;;20.04;43.06
48872;BME280;36154;51.674;7.824;2023-01-29T11:03:37;101882.53;;;20.07;42.91
48872;BME280;36154;51.674;7.824;2023-01-29T11:06:23;101883.34;;;20.12;43.11
48872;BME280;36154;51.674;7.824;2023-01-29T11:09:28;101879.88;;;20.16;43.14
48872;BME280;36154;51.674;7.824;2023-01-29T11:12:09;101879.00;;;20.20;43.21
48872;BME280;36154;51.674;7.824;2023-01-29T11:17:04;101877.19;;;20.30;43.06
48872;BME280;36154;51.674;7.824;2023-01-29T11:19:44;101860.75;;;20.36;43.31
48872;BME280;36154;51.674;7.824;2023-01-29T11:22:19;101859.84;;;20.40;43.11
48872;BME280;36154;51.674;7.824;2023-01-29T11:24:46;101854.63;;;20.43;43.12
48872;BME280;36154;51.674;7.824;2023-01-29T11:27:32;101848.59;;;20.47;43.16
48872;BME280;36154;51.674;7.824;2023-01-29T11:29:59;101841.69;;;20.49;43.08
48872;BME280;36154;51.674;7.824;2023-01-29T11:32:28;101833.91;;;20.51;43.17
48872;BME280;36154;51.674;7.824;2023-01-29T11:37:41;101817.47;;;20.53;42.99
48872;BME280;36154;51.674;7.824;2023-01-29T11:42:48;101820.91;;;20.55;42.92
48872;BME280;36154;51.674;7.824;2023-01-29T11:45:27;101810.56;;;20.55;42.91
48872;BME280;36154;51.674;7.824;2023-01-29T11:47:59;101807.06;;;20.56;42.84
48872;BME280;36154;51.674;7.824;2023-01-29T11:50:32;101812.25;;;20.56;42.77
48872;BME280;36154;51.674;7.824;2023-01-29T11:52:58;101801.06;;;20.56;42.73
48872;BME280;36154;51.674;7.824;2023-01-29T11:55:29;101792.44;;;20.55;42.84
48872;BME280;36154;51.674;7.824;2023-01-29T11:58:19;101794.16;;;20.55;42.51
48872;BME280;36154;51.674;7.824;2023-01-29T12:00:48;101793.28;;;20.54;42.60
48872;BME280;36154;51.674;7.824;2023-01-29T12:03:29;101788.13;;;20.54;42.75
48872;BME280;36154;51.674;7.824;2023-01-29T12:06:02;101784.66;;;20.55;42.92
48872;BME280;36154;51.674;7.824;2023-01-29T12:08:34;101788.13;;;20.54;42.91
48872;BME280;36154;51.674;7.824;2023-01-29T12:13:33;101774.34;;;20.52;43.13
48872;BME280;36154;51.674;7.824;2023-01-29T12:16:35;101765.69;;;20.53;43.21
48872;BME280;36154;51.674;7.824;2023-01-29T12:19:39;101755.31;;;20.53;43.14
48872;BME280;36154;51.674;7.824;2023-01-29T12:22:16;101747.56;;;20.52;43.09
48872;BME280;36154;51.674;7.824;2023-01-29T12:27:35;101728.59;;;20.51;43.44
48872;BME280;36154;51.674;7.824;2023-01-29T12:30:26;101719.06;;;20.53;43.14
48872;BME280;36154;51.674;7.824;2023-01-29T12:33:05;101720.81;;;20.51;43.30
48872;BME280;36154;51.674;7.824;2023-01-29T12:35:41;101713.94;;;20.50;43.35
48872;BME280;36154;51.674;7.824;2023-01-29T12:38:18;101713.94;;;20.50;43.33
48872;BME280;36154;51.674;7.824;2023-01-29T12:40:58;101714.81;;;20.49;43.20
48872;BME280;36154;51.674;7.824;2023-01-29T12:43:47;101705.31;;;20.48;43.18
48872;BME280;36154;51.674;7.824;2023-01-29T12:46:41;101711.38;;;20.45;43.07
48872;BME280;36154;51.674;7.824;2023-01-29T12:49:13;101703.63;;;20.44;43.20
48872;BME280;36154;51.674;7.824;2023-01-29T12:51:51;101698.47;;;20.41;43.37
48872;BME280;36154;51.674;7.824;2023-01-29T12:54:24;101698.47;;;20.41;43.21
48872;BME280;36154;51.674;7.824;2023-01-29T12:56:55;101689.88;;;20.40;43.01
48872;BME280;36154;51.674;7.824;2023-01-29T13:01:58;101689.88;;;20.39;43.16
48872;BME280;36154;51.674;7.824;2023-01-29T13:07:11;101675.25;;;20.33;43.35
48872;BME280;36154;51.674;7.824;2023-01-29T13:09:41;101686.47;;;20.37;43.23
48872;BME280;36154;51.674;7.824;2023-01-29T13:12:19;101682.16;;;20.36;43.18
48872;BME280;36154;51.674;7.824;2023-01-29T13:14:51;101678.72;;;20.35;43.25
48872;BME280;36154;51.674;7.824;2023-01-29T13:19:55;101670.97;;;20.34;43.12
48872;BME280;36154;51.674;7.824;2023-01-29T13:22:27;101676.97;;;20.34;43.18
48872;BME280;36154;51.674;7.824;2023-01-29T13:24:53;101674.44;;;20.29;43.06
48872;BME280;36154;51.674;7.824;2023-01-29T13:27:27;101676.16;;;20.30;43.23
48872;BME280;36154;51.674;7.824;2023-01-29T13:29:55;101675.28;;;20.31;43.60
48872;BME280;36154;51.674;7.824;2023-01-29T13:32:32;101664.09;;;20.29;44.11
48872;BME280;36154;51.674;7.824;2023-01-29T13:35:02;101661.50;;;20.29;44.62
48872;BME280;36154;51.674;7.824;2023-01-29T13:37:32;101667.56;;;20.28;45.21
48872;BME280;36154;51.674;7.824;2023-01-29T13:39:59;101664.09;;;20.28;45.66
48872;BME280;36154;51.674;7.824;2023-01-29T13:42:47;101662.41;;;20.25;46.49
48872;BME280;36154;51.674;7.824;2023-01-29T13:45:22;101662.44;;;20.24;47.28
48872;BME280;36154;51.674;7.824;2023-01-29T13:47:50;101649.53;;;20.21;47.36
48872;BME280;36154;51.674;7.824;2023-01-29T13:50:32;101658.16;;;20.18;47.71
48872;BME280;36154;51.674;7.824;2023-01-29T13:53:02;101645.28;;;20.15;47.79
48872;BME280;36154;51.674;7.824;2023-01-29T13:55:33;101650.47;;;20.15;47.80
48872;BME280;36154;51.674;7.824;2023-01-29T13:58:01;101653.06;;;20.13;47.79
48872;BME280;36154;51.674;7.824;2023-01-29T14:10:21;101643.63;;;20.08;48.40
48872;BME280;36154;51.674;7.824;2023-01-29T14:12:49;101639.31;;;20.10;48.28
48872;BME280;36154;51.674;7.824;2023-01-29T14:21:16;101635.00;;;20.09;47.71
48872;BME280;36154;51.674;7.824;2023-01-29T14:23:29;101631.53;;;20.10;47.96
48872;BME280;36154;51.674;7.824;2023-01-29T14:25:56;101636.72;;;20.08;47.73
48872;BME280;36154;51.674;7.824;2023-01-29T14:28:25;101629.81;;;20.09;47.93
48872;BME280;36154;51.674;7.824;2023-01-29T14:30:53;101628.06;;;20.11;47.98
48872;BME280;36154;51.674;7.824;2023-01-29T14:35:50;101628.06;;;20.11;48.34
48872;BME280;36154;51.674;7.824;2023-01-29T14:38:16;101625.50;;;20.09;48.54
48872;BME280;36154;51.674;7.824;2023-01-29T14:40:44;101622.91;;;20.08;48.84
48872;BME280;36154;51.674;7.824;2023-01-29T14:43:18;101616.91;;;20.06;48.73
48872;BME280;36154;51.674;7.824;2023-01-29T14:45:46;101619.50;;;20.06;48.47
48872;BME280;36154;51.674;7.824;2023-01-29T14:48:47;101619.53;;;20.03;48.79